sensor_id;sensor_type;location;lat;lon;timestamp;P1;durP1;ratioP1;P2;durP2;ratioP2
77136;SDS011;66102;48.542;-2.970;2022-12-29T00:01:00;9.65;;;2.00;;
77136;SDS011;66102;48.542;-2.970;2022-12-29T00:03:26;12.35;;;2.22;;
77136;SDS011;66102;48.542;-2.970;2022-12-29T00:05:56;10.60;;;2.20;;
77136;SDS011;66102;48.542;-2.970;2022-12-29T00:08:23;13.50;;;2.70;;
77136;SDS011;66102;48.542;-2.970;2022-12-29T00:11:14;14.88;;;2.15;;
77136;SDS011;66102;48.542;-2.970;2022-12-29T00:13:41;22.85;;;3.97;;
77136;SDS011;66102;48.542;-2.970;2022-12-29T00:16:26;13.15;;;2.15;;
77136;SDS011;66102;48.542;-2.970;2022-12-29T00:18:53;11.50;;;2.53;;
77136;SDS011;66102;48.542;-2.970;2022-12-29T00:21:20;15.05;;;2.38;;
77136;SDS011;66102;48.542;-2.970;2022-12-29T00:24:13;10.55;;;2.17;;
77136;SDS011;66102;48.542;-2.970;2022-12-29T00:26:57;12.18;;;1.80;;
77136;SDS011;66102;48.542;-2.970;2022-12-29T00:29:42;10.77;;;1.83;;
77136;SDS011;66102;48.542;-2.970;2022-12-29T00:32:26;15.95;;;2.42;;
77136;SDS011;66102;48.542;-2.970;2022-12-29T00:35:12;8.55;;;1.75;;
77136;SDS011;66102;48.542;-2.970;2022-12-29T00:37:42;10.98;;;1.70;;
77136;SDS011;66102;48.542;-2.970;2022-12-29T00:40:28;9.98;;;1.75;;
77136;SDS011;66102;48.542;-2.970;2022-12-29T00:43:12;11.20;;;2.15;;
77136;SDS011;66102;48.542;-2.970;2022-12-29T00:45:57;13.95;;;1.98;;
77136;SDS011;66102;48.542;-2.970;2022-12-29T00:48:23;9.80;;;1.55;;
77136;SDS011;66102;48.542;-2.970;2022-12-29T00:51:08;13.25;;;1.80;;
77136;SDS011;66102;48.542;-2.970;2022-12-29T00:53:34;10.43;;;2.42;;
77136;SDS011;66102;48.542;-2.970;2022-12-29T00:56:00;9.93;;;1.63;;
77136;SDS011;66102;48.542;-2.970;2022-12-29T00:58:27;9.45;;;1.50;;
77136;SDS011;66102;48.542;-2.970;2022-12-29T01:01:00;9.52;;;2.00;;
77136;SDS011;66102;48.542;-2.970;2022-12-29T01:03:27;13.27;;;1.85;;
77136;SDS011;66102;48.542;-2.970;2022-12-29T01:05:53;9.25;;;1.88;;
77136;SDS011;66102;48.542;-2.970;2022-12-29T01:08:19;16.65;;;2.17;;
77136;SDS011;66102;48.542;-2.970;2022-12-29T01:10:45;11.77;;;2.38;;
77136;SDS011;66102;48.542;-2.970;2022-12-29T01:13:11;12.63;;;1.60;;
77136;SDS011;66102;48.542;-2.970;2022-12-29T01:15:37;11.98;;;2.28;;
77136;SDS011;66102;48.542;-2.970;2022-12-29T01:18:03;11.20;;;2.22;;
77136;SDS011;66102;48.542;-2.970;2022-12-29T01:20:29;11.13;;;1.88;;
77136;SDS011;66102;48.542;-2.970;2022-12-29T01:22:55;12.95;;;2.08;;
77136;SDS011;66102;48.542;-2.970;2022-12-29T01:25:21;12.63;;;2.22;;
77136;SDS011;66102;48.542;-2.970;2022-12-29T01:27:47;11.80;;;1.90;;
77136;SDS011;66102;48.542;-2.970;2022-12-29T01:30:13;14.40;;;2.47;;
77136;SDS011;66102;48.542;-2.970;2022-12-29T01:32:39;11.70;;;2.38;;
77136;SDS011;66102;48.542;-2.970;2022-12-29T01:35:05;12.98;;;2.15;;
77136;SDS011;66102;48.542;-2.970;2022-12-29T01:37:31;17.92;;;3.22;;
77136;SDS011;66102;48.542;-2.970;2022-12-29T01:39:57;14.02;;;2.03;;
77136;SDS011;66102;48.542;-2.970;2022-12-29T01:42:24;16.83;;;2.83;;
77136;SDS011;66102;48.542;-2.970;2022-12-29T01:44:57;17.67;;;2.15;;
77136;SDS011;66102;48.542;-2.970;2022-12-29T01:47:40;12.73;;;2.10;;
77136;SDS011;66102;48.542;-2.970;2022-12-29T01:52:37;15.63;;;2.55;;
77136;SDS011;66102;48.542;-2.970;2022-12-29T01:55:05;16.85;;;2.85;;
77136;SDS011;66102;48.542;-2.970;2022-12-29T01:57:33;16.42;;;2.72;;
77136;SDS011;66102;48.542;-2.970;2022-12-29T02:00:02;15.18;;;2.60;;
77136;SDS011;66102;48.542;-2.970;2022-12-29T02:02:28;12.38;;;2.10;;
77136;SDS011;66102;48.542;-2.970;2022-12-29T02:04:55;17.95;;;2.25;;
77136;SDS011;66102;48.542;-2.970;2022-12-29T02:07:24;12.05;;;2.05;;
77136;SDS011;66102;48.542;-2.970;2022-12-29T02:09:50;17.80;;;2.53;;
77136;SDS011;66102;48.542;-2.970;2022-12-29T02:12:17;14.85;;;2.42;;
77136;SDS011;66102;48.542;-2.970;2022-12-29T02:14:45;13.65;;;2.40;;
77136;SDS011;66102;48.542;-2.970;2022-12-29T02:17:21;18.88;;;2.88;;
77136;SDS011;66102;48.542;-2.970;2022-12-29T02:22:32;12.57;;;2.30;;
77136;SDS011;66102;48.542;-2.970;2022-12-29T02:33:03;20.65;;;3.60;;
77136;SDS011;66102;48.542;-2.970;2022-12-29T02:35:37;18.33;;;2.83;;
77136;SDS011;66102;48.542;-2.970;2022-12-29T02:40:43;15.30;;;2.75;;
77136;SDS011;66102;48.542;-2.970;2022-12-29T02:43:23;21.88;;;3.65;;
77136;SDS011;66102;48.542;-2.970;2022-12-29T02:48:22;17.02;;;3.88;;
77136;SDS011;66102;48.542;-2.970;2022-12-29T02:50:56;19.48;;;2.70;;
77136;SDS011;66102;48.542;-2.970;2022-12-29T02:53:23;15.43;;;2.55;;
77136;SDS011;66102;48.542;-2.970;2022-12-29T02:56:08;19.60;;;2.60;;
77136;SDS011;66102;48.542;-2.970;2022-12-29T02:58:34;19.15;;;2.95;;
77136;SDS011;66102;48.542;-2.970;2022-12-29T03:03:36;17.92;;;3.20;;
77136;SDS011;66102;48.542;-2.970;2022-12-29T03:06:52;17.10;;;3.72;;
77136;SDS011;66102;48.542;-2.970;2022-12-29T03:08:58;15.48;;;3.13;;
77136;SDS011;66102;48.542;-2.970;2022-12-29T03:11:27;12.75;;;2.58;;
77136;SDS011;66102;48.542;-2.970;2022-12-29T03:14:26;14.57;;;2.97;;
77136;SDS011;66102;48.542;-2.970;2022-12-29T03:17:18;15.98;;;3.22;;
77136;SDS011;66102;48.542;-2.970;2022-12-29T03:19:47;12.05;;;2.22;;
77136;SDS011;66102;48.542;-2.970;2022-12-29T03:22:17;19.90;;;3.53;;
77136;SDS011;66102;48.542;-2.970;2022-12-29T03:24:52;17.60;;;2.53;;
77136;SDS011;66102;48.542;-2.970;2022-12-29T03:27:19;13.75;;;3.55;;
77136;SDS011;66102;48.542;-2.970;2022-12-29T03:29:52;17.02;;;2.92;;
77136;SDS011;66102;48.542;-2.970;2022-12-29T03:32:24;17.95;;;2.85;;
77136;SDS011;66102;48.542;-2.970;2022-12-29T03:34:51;13.88;;;1.80;;
77136;SDS011;66102;48.542;-2.970;2022-12-29T03:37:20;14.57;;;2.50;;
77136;SDS011;66102;48.542;-2.970;2022-12-29T03:39:47;13.35;;;2.30;;
77136;SDS011;66102;48.542;-2.970;2022-12-29T03:42:15;13.90;;;2.05;;
77136;SDS011;66102;48.542;-2.970;2022-12-29T03:44:42;11.00;;;2.40;;
77136;SDS011;66102;48.542;-2.970;2022-12-29T03:47:09;12.55;;;1.95;;
77136;SDS011;66102;48.542;-2.970;2022-12-29T03:49:36;17.20;;;2.80;;
77136;SDS011;66102;48.542;-2.970;2022-12-29T03:52:02;18.55;;;3.30;;
77136;SDS011;66102;48.542;-2.970;2022-12-29T03:54:28;12.50;;;2.05;;
77136;SDS011;66102;48.542;-2.970;2022-12-29T03:56:54;13.32;;;1.98;;
77136;SDS011;66102;48.542;-2.970;2022-12-29T03:59:20;16.42;;;2.40;;
77136;SDS011;66102;48.542;-2.970;2022-12-29T04:01:47;11.90;;;2.53;;
77136;SDS011;66102;48.542;-2.970;2022-12-29T04:04:13;14.57;;;2.63;;
77136;SDS011;66102;48.542;-2.970;2022-12-29T04:06:39;18.40;;;2.78;;
77136;SDS011;66102;48.542;-2.970;2022-12-29T04:09:05;17.42;;;2.65;;
77136;SDS011;66102;48.542;-2.970;2022-12-29T04:11:31;15.63;;;2.95;;
77136;SDS011;66102;48.542;-2.970;2022-12-29T04:13:57;12.65;;;2.17;;
77136;SDS011;66102;48.542;-2.970;2022-12-29T04:16:23;13.32;;;2.22;;
77136;SDS011;66102;48.542;-2.970;2022-12-29T04:18:49;18.42;;;2.75;;
77136;SDS011;66102;48.542;-2.970;2022-12-29T04:21:15;13.00;;;2.22;;
77136;SDS011;66102;48.542;-2.970;2022-12-29T04:23:41;14.10;;;1.98;;
77136;SDS011;66102;48.542;-2.970;2022-12-29T04:26:08;11.13;;;2.53;;
77136;SDS011;66102;48.542;-2.970;2022-12-29T04:28:34;16.05;;;4.10;;
77136;SDS011;66102;48.542;-2.970;2022-12-29T04:31:01;13.00;;;2.05;;
77136;SDS011;66102;48.542;-2.970;2022-12-29T04:33:27;11.57;;;2.40;;
77136;SDS011;66102;48.542;-2.970;2022-12-29T04:35:53;15.93;;;2.90;;
77136;SDS011;66102;48.542;-2.970;2022-12-29T04:38:20;17.60;;;2.50;;
77136;SDS011;66102;48.542;-2.970;2022-12-29T04:40:47;12.80;;;2.42;;
77136;SDS011;66102;48.542;-2.970;2022-12-29T04:43:13;12.98;;;2.00;;
77136;SDS011;66102;48.542;-2.970;2022-12-29T04:45:43;13.07;;;2.78;;
77136;SDS011;66102;48.542;-2.970;2022-12-29T04:48:09;15.05;;;2.10;;
77136;SDS011;66102;48.542;-2.970;2022-12-29T04:50:36;15.05;;;3.20;;
77136;SDS011;66102;48.542;-2.970;2022-12-29T04:53:02;14.93;;;3.25;;
77136;SDS011;66102;48.542;-2.970;2022-12-29T04:55:28;12.30;;;2.58;;
77136;SDS011;66102;48.542;-2.970;2022-12-29T04:57:54;14.15;;;3.22;;
77136;SDS011;66102;48.542;-2.970;2022-12-29T05:00:20;11.90;;;1.92;;
77136;SDS011;66102;48.542;-2.970;2022-12-29T05:02:46;17.45;;;3.35;;
77136;SDS011;66102;48.542;-2.970;2022-12-29T05:05:12;13.98;;;2.58;;
77136;SDS011;66102;48.542;-2.970;2022-12-29T05:07:38;14.25;;;2.20;;
77136;SDS011;66102;48.542;-2.970;2022-12-29T05:10:05;14.68;;;2.08;;
77136;SDS011;66102;48.542;-2.970;2022-12-29T05:12:31;13.43;;;2.92;;
77136;SDS011;66102;48.542;-2.970;2022-12-29T05:14:58;16.13;;;3.20;;
77136;SDS011;66102;48.542;-2.970;2022-12-29T05:17:24;16.08;;;2.63;;
77136;SDS011;66102;48.542;-2.970;2022-12-29T05:19:50;17.80;;;2.28;;
77136;SDS011;66102;48.542;-2.970;2022-12-29T05:22:16;15.80;;;2.40;;
77136;SDS011;66102;48.542;-2.970;2022-12-29T05:24:42;18.13;;;2.65;;
77136;SDS011;66102;48.542;-2.970;2022-12-29T05:27:08;14.00;;;2.72;;
77136;SDS011;66102;48.542;-2.970;2022-12-29T05:29:34;18.27;;;2.90;;
77136;SDS011;66102;48.542;-2.970;2022-12-29T05:32:00;19.70;;;2.67;;
77136;SDS011;66102;48.542;-2.970;2022-12-29T05:34:26;21.08;;;3.00;;
77136;SDS011;66102;48.542;-2.970;2022-12-29T05:36:52;19.00;;;4.00;;
77136;SDS011;66102;48.542;-2.970;2022-12-29T05:39:19;19.90;;;2.97;;
77136;SDS011;66102;48.542;-2.970;2022-12-29T05:41:45;12.60;;;2.45;;
77136;SDS011;66102;48.542;-2.970;2022-12-29T05:44:11;16.38;;;2.25;;
77136;SDS011;66102;48.542;-2.970;2022-12-29T05:46:37;19.95;;;3.35;;
77136;SDS011;66102;48.542;-2.970;2022-12-29T05:49:04;16.90;;;3.33;;
77136;SDS011;66102;48.542;-2.970;2022-12-29T05:51:30;18.40;;;3.08;;
77136;SDS011;66102;48.542;-2.970;2022-12-29T05:53:56;18.23;;;2.83;;
77136;SDS011;66102;48.542;-2.970;2022-12-29T05:56:22;15.60;;;2.20;;
77136;SDS011;66102;48.542;-2.970;2022-12-29T05:58:48;12.73;;;2.20;;
77136;SDS011;66102;48.542;-2.970;2022-12-29T06:01:15;14.05;;;2.10;;
77136;SDS011;66102;48.542;-2.970;2022-12-29T06:03:41;17.05;;;2.35;;
77136;SDS011;66102;48.542;-2.970;2022-12-29T06:06:07;13.02;;;2.33;;
77136;SDS011;66102;48.542;-2.970;2022-12-29T06:08:33;19.08;;;3.33;;
77136;SDS011;66102;48.542;-2.970;2022-12-29T06:10:59;23.55;;;4.07;;
77136;SDS011;66102;48.542;-2.970;2022-12-29T06:13:25;13.55;;;1.92;;
77136;SDS011;66102;48.542;-2.970;2022-12-29T06:15:52;14.13;;;3.13;;
77136;SDS011;66102;48.542;-2.970;2022-12-29T06:18:18;16.98;;;2.55;;
77136;SDS011;66102;48.542;-2.970;2022-12-29T06:20:44;19.83;;;3.58;;
77136;SDS011;66102;48.542;-2.970;2022-12-29T06:23:11;18.02;;;2.40;;
77136;SDS011;66102;48.542;-2.970;2022-12-29T06:25:38;18.58;;;3.17;;
77136;SDS011;66102;48.542;-2.970;2022-12-29T06:28:04;15.02;;;2.70;;
77136;SDS011;66102;48.542;-2.970;2022-12-29T06:30:30;13.55;;;2.60;;
77136;SDS011;66102;48.542;-2.970;2022-12-29T06:32:57;20.88;;;2.97;;
77136;SDS011;66102;48.542;-2.970;2022-12-29T06:35:23;12.38;;;2.20;;
77136;SDS011;66102;48.542;-2.970;2022-12-29T06:37:49;17.98;;;3.17;;
77136;SDS011;66102;48.542;-2.970;2022-12-29T06:40:15;16.65;;;2.83;;
77136;SDS011;66102;48.542;-2.970;2022-12-29T06:42:42;17.40;;;3.22;;
77136;SDS011;66102;48.542;-2.970;2022-12-29T06:45:08;13.98;;;2.90;;
77136;SDS011;66102;48.542;-2.970;2022-12-29T06:47:34;22.08;;;2.72;;
77136;SDS011;66102;48.542;-2.970;2022-12-29T06:50:00;15.90;;;2.90;;
77136;SDS011;66102;48.542;-2.970;2022-12-29T06:52:26;18.23;;;3.05;;
77136;SDS011;66102;48.542;-2.970;2022-12-29T06:54:53;16.83;;;2.35;;
77136;SDS011;66102;48.542;-2.970;2022-12-29T06:57:20;14.48;;;2.75;;
77136;SDS011;66102;48.542;-2.970;2022-12-29T06:59:46;21.85;;;3.03;;
77136;SDS011;66102;48.542;-2.970;2022-12-29T07:02:12;18.67;;;2.85;;
77136;SDS011;66102;48.542;-2.970;2022-12-29T07:04:44;18.23;;;2.90;;
77136;SDS011;66102;48.542;-2.970;2022-12-29T07:07:10;16.35;;;2.63;;
77136;SDS011;66102;48.542;-2.970;2022-12-29T07:09:36;16.83;;;3.10;;
77136;SDS011;66102;48.542;-2.970;2022-12-29T07:12:02;18.88;;;3.00;;
77136;SDS011;66102;48.542;-2.970;2022-12-29T07:14:28;22.52;;;3.30;;
77136;SDS011;66102;48.542;-2.970;2022-12-29T07:16:54;19.17;;;2.80;;
77136;SDS011;66102;48.542;-2.970;2022-12-29T07:19:20;15.93;;;2.72;;
77136;SDS011;66102;48.542;-2.970;2022-12-29T07:21:46;10.77;;;2.35;;
77136;SDS011;66102;48.542;-2.970;2022-12-29T07:24:12;17.40;;;2.92;;
77136;SDS011;66102;48.542;-2.970;2022-12-29T07:26:38;18.33;;;2.40;;
77136;SDS011;66102;48.542;-2.970;2022-12-29T07:29:06;19.55;;;3.70;;
77136;SDS011;66102;48.542;-2.970;2022-12-29T07:31:32;18.70;;;3.70;;
77136;SDS011;66102;48.542;-2.970;2022-12-29T07:33:58;20.80;;;3.92;;
77136;SDS011;66102;48.542;-2.970;2022-12-29T07:36:24;18.75;;;2.45;;
77136;SDS011;66102;48.542;-2.970;2022-12-29T07:38:50;17.63;;;2.97;;
77136;SDS011;66102;48.542;-2.970;2022-12-29T07:41:16;15.95;;;2.17;;
77136;SDS011;66102;48.542;-2.970;2022-12-29T07:43:46;18.38;;;2.90;;
77136;SDS011;66102;48.542;-2.970;2022-12-29T07:46:12;20.25;;;3.35;;
77136;SDS011;66102;48.542;-2.970;2022-12-29T07:48:38;22.55;;;4.40;;
77136;SDS011;66102;48.542;-2.970;2022-12-29T07:51:04;22.75;;;3.70;;
77136;SDS011;66102;48.542;-2.970;2022-12-29T07:53:31;20.23;;;3.20;;
77136;SDS011;66102;48.542;-2.970;2022-12-29T07:55:57;14.60;;;2.75;;
77136;SDS011;66102;48.542;-2.970;2022-12-29T07:58:28;18.38;;;3.38;;
77136;SDS011;66102;48.542;-2.970;2022-12-29T08:00:54;17.58;;;3.03;;
77136;SDS011;66102;48.542;-2.970;2022-12-29T08:03:21;11.77;;;3.38;;
77136;SDS011;66102;48.542;-2.970;2022-12-29T08:05:48;16.85;;;2.92;;
77136;SDS011;66102;48.542;-2.970;2022-12-29T08:08:29;14.35;;;3.35;;
77136;SDS011;66102;48.542;-2.970;2022-12-29T08:11:00;18.88;;;2.95;;
77136;SDS011;66102;48.542;-2.970;2022-12-29T08:13:45;17.92;;;3.60;;
77136;SDS011;66102;48.542;-2.970;2022-12-29T08:16:34;17.92;;;3.10;;
77136;SDS011;66102;48.542;-2.970;2022-12-29T08:19:00;16.05;;;2.90;;
77136;SDS011;66102;48.542;-2.970;2022-12-29T08:21:30;20.45;;;3.03;;
77136;SDS011;66102;48.542;-2.970;2022-12-29T08:24:02;29.35;;;3.92;;
77136;SDS011;66102;48.542;-2.970;2022-12-29T08:26:29;13.60;;;2.75;;
77136;SDS011;66102;48.542;-2.970;2022-12-29T08:28:55;16.27;;;3.25;;
77136;SDS011;66102;48.542;-2.970;2022-12-29T08:31:22;13.88;;;2.85;;
77136;SDS011;66102;48.542;-2.970;2022-12-29T08:33:48;17.13;;;3.65;;
77136;SDS011;66102;48.542;-2.970;2022-12-29T08:36:18;19.58;;;3.70;;
77136;SDS011;66102;48.542;-2.970;2022-12-29T08:38:44;18.77;;;3.08;;
77136;SDS011;66102;48.542;-2.970;2022-12-29T08:41:10;20.98;;;3.42;;
77136;SDS011;66102;48.542;-2.970;2022-12-29T08:43:48;17.80;;;3.35;;
77136;SDS011;66102;48.542;-2.970;2022-12-29T08:46:15;15.43;;;2.53;;
77136;SDS011;66102;48.542;-2.970;2022-12-29T08:48:42;18.80;;;3.40;;
77136;SDS011;66102;48.542;-2.970;2022-12-29T08:51:10;19.10;;;3.25;;
77136;SDS011;66102;48.542;-2.970;2022-12-29T08:53:36;20.45;;;3.95;;
77136;SDS011;66102;48.542;-2.970;2022-12-29T08:56:02;15.25;;;3.05;;
77136;SDS011;66102;48.542;-2.970;2022-12-29T08:58:31;17.10;;;2.78;;
77136;SDS011;66102;48.542;-2.970;2022-12-29T09:01:00;25.23;;;3.60;;
77136;SDS011;66102;48.542;-2.970;2022-12-29T09:03:29;14.10;;;2.67;;
77136;SDS011;66102;48.542;-2.970;2022-12-29T09:05:59;14.02;;;2.75;;
77136;SDS011;66102;48.542;-2.970;2022-12-29T09:08:27;21.35;;;3.33;;
77136;SDS011;66102;48.542;-2.970;2022-12-29T09:10:53;18.98;;;3.53;;
77136;SDS011;66102;48.542;-2.970;2022-12-29T09:13:22;16.92;;;3.17;;
77136;SDS011;66102;48.542;-2.970;2022-12-29T09:15:57;16.42;;;3.10;;
77136;SDS011;66102;48.542;-2.970;2022-12-29T09:18:23;20.67;;;3.03;;
77136;SDS011;66102;48.542;-2.970;2022-12-29T09:20:51;19.67;;;3.30;;
77136;SDS011;66102;48.542;-2.970;2022-12-29T09:23:21;13.32;;;3.15;;
77136;SDS011;66102;48.542;-2.970;2022-12-29T09:25:51;13.73;;;2.92;;
77136;SDS011;66102;48.542;-2.970;2022-12-29T09:28:17;15.80;;;3.42;;
77136;SDS011;66102;48.542;-2.970;2022-12-29T09:30:43;18.90;;;2.72;;
77136;SDS011;66102;48.542;-2.970;2022-12-29T09:33:15;15.75;;;2.30;;
77136;SDS011;66102;48.542;-2.970;2022-12-29T09:35:45;15.27;;;3.15;;
77136;SDS011;66102;48.542;-2.970;2022-12-29T09:38:15;13.93;;;2.70;;
77136;SDS011;66102;48.542;-2.970;2022-12-29T09:40:43;16.08;;;2.85;;
77136;SDS011;66102;48.542;-2.970;2022-12-29T09:45:52;20.48;;;3.03;;
77136;SDS011;66102;48.542;-2.970;2022-12-29T09:48:22;21.80;;;3.20;;
77136;SDS011;66102;48.542;-2.970;2022-12-29T09:50:50;23.27;;;3.75;;
77136;SDS011;66102;48.542;-2.970;2022-12-29T09:55:46;13.20;;;2.90;;
77136;SDS011;66102;48.542;-2.970;2022-12-29T10:00:57;15.68;;;2.55;;
77136;SDS011;66102;48.542;-2.970;2022-12-29T10:09:08;11.98;;;2.30;;
77136;SDS011;66102;48.542;-2.970;2022-12-29T10:11:55;11.88;;;2.15;;
77136;SDS011;66102;48.542;-2.970;2022-12-29T10:19:57;15.65;;;2.40;;
77136;SDS011;66102;48.542;-2.970;2022-12-29T10:22:32;12.20;;;2.50;;
77136;SDS011;66102;48.542;-2.970;2022-12-29T10:25:02;16.17;;;2.33;;
77136;SDS011;66102;48.542;-2.970;2022-12-29T10:27:30;10.38;;;2.10;;
77136;SDS011;66102;48.542;-2.970;2022-12-29T10:29:57;11.68;;;2.20;;
77136;SDS011;66102;48.542;-2.970;2022-12-29T10:34:51;15.23;;;2.60;;
77136;SDS011;66102;48.542;-2.970;2022-12-29T10:42:57;15.25;;;3.13;;
77136;SDS011;66102;48.542;-2.970;2022-12-29T10:45:24;10.82;;;2.35;;
77136;SDS011;66102;48.542;-2.970;2022-12-29T10:47:56;12.63;;;2.72;;
77136;SDS011;66102;48.542;-2.970;2022-12-29T10:50:25;16.92;;;2.45;;
77136;SDS011;66102;48.542;-2.970;2022-12-29T10:52:51;11.05;;;2.00;;
77136;SDS011;66102;48.542;-2.970;2022-12-29T10:55:20;10.32;;;2.30;;
77136;SDS011;66102;48.542;-2.970;2022-12-29T10:57:48;16.65;;;3.75;;
77136;SDS011;66102;48.542;-2.970;2022-12-29T11:00:20;17.98;;;3.38;;
77136;SDS011;66102;48.542;-2.970;2022-12-29T11:05:22;11.63;;;2.05;;
77136;SDS011;66102;48.542;-2.970;2022-12-29T11:07:49;17.88;;;2.45;;
77136;SDS011;66102;48.542;-2.970;2022-12-29T11:15:49;15.93;;;3.13;;
77136;SDS011;66102;48.542;-2.970;2022-12-29T11:18:36;14.90;;;2.60;;
77136;SDS011;66102;48.542;-2.970;2022-12-29T11:21:03;11.85;;;2.05;;
77136;SDS011;66102;48.542;-2.970;2022-12-29T11:23:37;10.50;;;1.80;;
77136;SDS011;66102;48.542;-2.970;2022-12-29T11:26:08;9.27;;;2.08;;
77136;SDS011;66102;48.542;-2.970;2022-12-29T11:28:38;9.65;;;2.25;;
77136;SDS011;66102;48.542;-2.970;2022-12-29T11:31:05;14.25;;;2.53;;
77136;SDS011;66102;48.542;-2.970;2022-12-29T11:33:32;14.40;;;3.05;;
77136;SDS011;66102;48.542;-2.970;2022-12-29T11:36:08;13.23;;;1.88;;
77136;SDS011;66102;48.542;-2.970;2022-12-29T11:38:37;10.32;;;2.03;;
77136;SDS011;66102;48.542;-2.970;2022-12-29T11:41:05;18.88;;;2.75;;
77136;SDS011;66102;48.542;-2.970;2022-12-29T11:43:34;8.48;;;2.00;;
77136;SDS011;66102;48.542;-2.970;2022-12-29T11:46:01;15.00;;;2.47;;
77136;SDS011;66102;48.542;-2.970;2022-12-29T11:48:39;15.23;;;2.60;;
77136;SDS011;66102;48.542;-2.970;2022-12-29T11:51:06;17.20;;;2.33;;
77136;SDS011;66102;48.542;-2.970;2022-12-29T11:53:38;9.70;;;2.00;;
77136;SDS011;66102;48.542;-2.970;2022-12-29T11:56:06;14.98;;;3.05;;
77136;SDS011;66102;48.542;-2.970;2022-12-29T11:58:37;14.48;;;2.83;;
77136;SDS011;66102;48.542;-2.970;2022-12-29T12:01:09;10.60;;;2.03;;
77136;SDS011;66102;48.542;-2.970;2022-12-29T12:03:38;8.63;;;2.03;;
77136;SDS011;66102;48.542;-2.970;2022-12-29T12:06:07;7.22;;;2.20;;
77136;SDS011;66102;48.542;-2.970;2022-12-29T12:08:41;5.60;;;1.35;;
77136;SDS011;66102;48.542;-2.970;2022-12-29T12:13:40;11.20;;;2.08;;
77136;SDS011;66102;48.542;-2.970;2022-12-29T12:16:15;6.25;;;1.25;;
77136;SDS011;66102;48.542;-2.970;2022-12-29T12:21:18;8.80;;;1.67;;
77136;SDS011;66102;48.542;-2.970;2022-12-29T12:29:13;6.72;;;1.70;;
77136;SDS011;66102;48.542;-2.970;2022-12-29T12:31:43;12.73;;;1.80;;
77136;SDS011;66102;48.542;-2.970;2022-12-29T12:34:12;9.63;;;1.98;;
77136;SDS011;66102;48.542;-2.970;2022-12-29T12:46:45;9.50;;;1.58;;
77136;SDS011;66102;48.542;-2.970;2022-12-29T12:54:36;8.07;;;1.73;;
77136;SDS011;66102;48.542;-2.970;2022-12-29T13:15:22;10.38;;;2.28;;
77136;SDS011;66102;48.542;-2.970;2022-12-29T13:17:57;18.85;;;2.60;;
77136;SDS011;66102;48.542;-2.970;2022-12-29T13:20:46;9.32;;;2.72;;
77136;SDS011;66102;48.542;-2.970;2022-12-29T13:36:14;10.52;;;1.75;;
77136;SDS011;66102;48.542;-2.970;2022-12-29T13:38:45;9.35;;;1.60;;
77136;SDS011;66102;48.542;-2.970;2022-12-29T13:41:26;8.00;;;1.75;;
77136;SDS011;66102;48.542;-2.970;2022-12-29T13:43:53;7.93;;;1.67;;
77136;SDS011;66102;48.542;-2.970;2022-12-29T13:46:42;11.90;;;1.60;;
77136;SDS011;66102;48.542;-2.970;2022-12-29T13:49:17;9.50;;;1.50;;
77136;SDS011;66102;48.542;-2.970;2022-12-29T13:59:53;4.60;;;1.02;;
77136;SDS011;66102;48.542;-2.970;2022-12-29T14:05:28;5.82;;;1.27;;
77136;SDS011;66102;48.542;-2.970;2022-12-29T14:08:00;5.50;;;1.05;;
77136;SDS011;66102;48.542;-2.970;2022-12-29T14:10:48;9.80;;;1.25;;
77136;SDS011;66102;48.542;-2.970;2022-12-29T14:15:40;9.93;;;1.33;;
77136;SDS011;66102;48.542;-2.970;2022-12-29T14:21:05;8.65;;;1.30;;
77136;SDS011;66102;48.542;-2.970;2022-12-29T14:28:48;5.80;;;1.00;;
77136;SDS011;66102;48.542;-2.970;2022-12-29T14:33:41;7.00;;;1.15;;
77136;SDS011;66102;48.542;-2.970;2022-12-29T14:36:20;7.38;;;1.60;;
77136;SDS011;66102;48.542;-2.970;2022-12-29T14:38:47;5.47;;;1.50;;
77136;SDS011;66102;48.542;-2.970;2022-12-29T14:46:41;8.32;;;1.13;;
77136;SDS011;66102;48.542;-2.970;2022-12-29T14:49:08;4.05;;;0.90;;
77136;SDS011;66102;48.542;-2.970;2022-12-29T14:51:40;3.83;;;0.90;;
77136;SDS011;66102;48.542;-2.970;2022-12-29T14:56:52;5.50;;;1.27;;
77136;SDS011;66102;48.542;-2.970;2022-12-29T14:59:22;7.65;;;1.45;;
77136;SDS011;66102;48.542;-2.970;2022-12-29T15:01:50;8.05;;;1.20;;
77136;SDS011;66102;48.542;-2.970;2022-12-29T15:04:20;5.53;;;0.77;;
77136;SDS011;66102;48.542;-2.970;2022-12-29T15:06:47;6.28;;;1.00;;
77136;SDS011;66102;48.542;-2.970;2022-12-29T15:11:47;4.15;;;1.00;;
77136;SDS011;66102;48.542;-2.970;2022-12-29T15:14:28;4.90;;;0.90;;
77136;SDS011;66102;48.542;-2.970;2022-12-29T15:16:54;4.03;;;0.98;;
77136;SDS011;66102;48.542;-2.970;2022-12-29T15:19:21;3.25;;;0.90;;
77136;SDS011;66102;48.542;-2.970;2022-12-29T15:21:47;4.15;;;1.20;;
77136;SDS011;66102;48.542;-2.970;2022-12-29T15:24:14;4.85;;;0.90;;
77136;SDS011;66102;48.542;-2.970;2022-12-29T15:26:50;6.38;;;0.85;;
77136;SDS011;66102;48.542;-2.970;2022-12-29T15:29:36;3.22;;;1.00;;
77136;SDS011;66102;48.542;-2.970;2022-12-29T15:34:42;8.68;;;1.20;;
77136;SDS011;66102;48.542;-2.970;2022-12-29T15:37:09;9.23;;;1.42;;
77136;SDS011;66102;48.542;-2.970;2022-12-29T15:39:35;7.95;;;1.50;;
77136;SDS011;66102;48.542;-2.970;2022-12-29T15:47:23;6.88;;;1.42;;
77136;SDS011;66102;48.542;-2.970;2022-12-29T15:49:50;7.00;;;1.33;;
77136;SDS011;66102;48.542;-2.970;2022-12-29T15:52:21;6.93;;;1.40;;
77136;SDS011;66102;48.542;-2.970;2022-12-29T15:54:48;8.38;;;2.90;;
77136;SDS011;66102;48.542;-2.970;2022-12-29T15:57:21;8.45;;;1.85;;
77136;SDS011;66102;48.542;-2.970;2022-12-29T15:59:47;10.23;;;2.80;;
77136;SDS011;66102;48.542;-2.970;2022-12-29T16:02:14;9.05;;;2.05;;
77136;SDS011;66102;48.542;-2.970;2022-12-29T16:04:40;7.47;;;1.77;;
77136;SDS011;66102;48.542;-2.970;2022-12-29T16:09:56;6.82;;;1.50;;
77136;SDS011;66102;48.542;-2.970;2022-12-29T16:12:24;5.75;;;1.30;;
77136;SDS011;66102;48.542;-2.970;2022-12-29T16:17:27;6.93;;;1.20;;
77136;SDS011;66102;48.542;-2.970;2022-12-29T16:19:57;9.27;;;1.50;;
77136;SDS011;66102;48.542;-2.970;2022-12-29T16:24:50;6.93;;;1.23;;
77136;SDS011;66102;48.542;-2.970;2022-12-29T16:27:21;7.15;;;1.80;;
77136;SDS011;66102;48.542;-2.970;2022-12-29T16:29:49;5.55;;;2.15;;
77136;SDS011;66102;48.542;-2.970;2022-12-29T16:32:25;5.75;;;1.63;;
77136;SDS011;66102;48.542;-2.970;2022-12-29T16:35:00;5.72;;;1.70;;
77136;SDS011;66102;48.542;-2.970;2022-12-29T16:37:32;11.98;;;2.20;;
77136;SDS011;66102;48.542;-2.970;2022-12-29T16:42:47;9.77;;;3.40;;
77136;SDS011;66102;48.542;-2.970;2022-12-29T16:48:29;6.47;;;1.70;;
77136;SDS011;66102;48.542;-2.970;2022-12-29T16:50:37;6.63;;;1.30;;
77136;SDS011;66102;48.542;-2.970;2022-12-29T16:53:03;7.78;;;1.40;;
77136;SDS011;66102;48.542;-2.970;2022-12-29T16:55:29;7.07;;;1.35;;
77136;SDS011;66102;48.542;-2.970;2022-12-29T16:57:56;6.78;;;1.77;;
77136;SDS011;66102;48.542;-2.970;2022-12-29T17:00:23;6.38;;;1.30;;
77136;SDS011;66102;48.542;-2.970;2022-12-29T17:02:51;8.98;;;1.33;;
77136;SDS011;66102;48.542;-2.970;2022-12-29T17:05:18;7.00;;;1.60;;
77136;SDS011;66102;48.542;-2.970;2022-12-29T17:07:44;9.27;;;1.38;;
77136;SDS011;66102;48.542;-2.970;2022-12-29T17:10:11;6.38;;;1.30;;
77136;SDS011;66102;48.542;-2.970;2022-12-29T17:12:38;12.13;;;2.03;;
77136;SDS011;66102;48.542;-2.970;2022-12-29T17:17:49;6.45;;;1.80;;
77136;SDS011;66102;48.542;-2.970;2022-12-29T17:20:21;7.63;;;1.85;;
77136;SDS011;66102;48.542;-2.970;2022-12-29T17:22:48;9.40;;;1.90;;
77136;SDS011;66102;48.542;-2.970;2022-12-29T17:27:48;8.50;;;2.00;;
77136;SDS011;66102;48.542;-2.970;2022-12-29T17:30:17;9.50;;;2.60;;
77136;SDS011;66102;48.542;-2.970;2022-12-29T17:32:45;8.88;;;2.55;;